createdAt,value
2022-10-17T00:00:49.394Z,31.92
2022-10-17T00:03:16.140Z,28.58
2022-10-17T00:05:47.955Z,41.60
2022-10-17T00:08:16.127Z,25.95
2022-10-17T00:10:42.671Z,38.03
2022-10-17T00:13:10.522Z,38.00
2022-10-17T00:15:36.979Z,30.77
2022-10-17T00:18:04.018Z,34.22
2022-10-17T00:20:30.576Z,42.10
2022-10-17T00:22:57.326Z,29.33
2022-10-17T00:25:23.743Z,33.67
2022-10-17T00:27:50.133Z,25.92
2022-10-17T00:30:17.019Z,33.03
2022-10-17T00:32:43.640Z,33.17
2022-10-17T00:35:10.454Z,34.05
2022-10-17T00:37:38.533Z,25.52
2022-10-17T00:40:06.287Z,39.10
2022-10-17T00:42:33.512Z,34.70
2022-10-17T00:45:22.808Z,25.85
2022-10-17T00:47:58.046Z,39.50
2022-10-17T00:50:24.886Z,38.25
2022-10-17T00:52:51.885Z,27.63
2022-10-17T00:55:24.850Z,29.30
2022-10-17T00:57:51.798Z,31.13
2022-10-17T01:00:18.742Z,37.58
2022-10-17T01:02:45.326Z,34.75
2022-10-17T01:05:12.189Z,33.55
2022-10-17T01:07:39.733Z,41.17
2022-10-17T01:10:06.909Z,33.38
2022-10-17T01:12:33.256Z,46.15
2022-10-17T01:15:24.565Z,30.83
2022-10-17T01:18:05.631Z,34.22
2022-10-17T01:21:07.804Z,33.63
2022-10-17T01:24:11.002Z,32.42
2022-10-17T01:27:05.616Z,47.67
2022-10-17T01:29:52.323Z,35.50
2022-10-17T01:32:20.153Z,36.50
2022-10-17T01:35:00.720Z,35.65
2022-10-17T01:37:45.477Z,40.40
2022-10-17T01:40:23.511Z,29.33
2022-10-17T01:43:02.731Z,33.63
2022-10-17T01:45:54.267Z,34.63
2022-10-17T01:48:23.363Z,28.27
2022-10-17T01:50:54.739Z,28.30
2022-10-17T01:53:28.799Z,28.15
2022-10-17T01:58:36.794Z,27.38
2022-10-17T02:01:05.556Z,29.52
2022-10-17T02:03:34.402Z,33.97
2022-10-17T02:06:01.103Z,34.80
2022-10-17T02:08:48.072Z,28.52
2022-10-17T02:11:23.617Z,30.55
2022-10-17T02:18:07.307Z,32.47
2022-10-17T02:20:52.481Z,26.33
2022-10-17T02:26:12.293Z,24.38
2022-10-17T02:28:52.659Z,27.65
2022-10-17T02:31:31.789Z,29.13
2022-10-17T02:34:02.274Z,31.25
2022-10-17T02:36:41.053Z,24.67
2022-10-17T02:39:11.385Z,27.25
2022-10-17T02:41:38.978Z,39.70
2022-10-17T02:44:06.693Z,49.13
2022-10-17T02:46:34.061Z,22.45
2022-10-17T02:49:09.014Z,27.92
2022-10-17T02:51:57.146Z,39.95
2022-10-17T02:54:39.011Z,26.50
2022-10-17T02:57:14.359Z,33.53
2022-10-17T02:59:42.091Z,33.67
2022-10-17T03:02:08.673Z,34.90
2022-10-17T03:04:39.644Z,41.80
2022-10-17T03:07:06.045Z,33.75
2022-10-17T03:09:32.454Z,22.98
2022-10-17T03:11:58.903Z,33.90
2022-10-17T03:14:25.287Z,25.73
2022-10-17T03:16:51.759Z,26.13
2022-10-17T03:19:18.207Z,41.72
2022-10-17T03:21:44.787Z,33.72
2022-10-17T03:24:11.186Z,32.20
2022-10-17T03:26:37.667Z,24.35
2022-10-17T03:29:04.165Z,31.60
2022-10-17T03:31:30.995Z,26.42
2022-10-17T03:33:57.453Z,23.40
2022-10-17T03:36:23.938Z,27.77
2022-10-17T03:38:54.041Z,25.25
2022-10-17T03:41:20.750Z,43.13
2022-10-17T03:43:47.232Z,38.28
2022-10-17T03:46:13.839Z,31.23
2022-10-17T03:48:43.448Z,37.95
2022-10-17T03:51:10.451Z,23.25
2022-10-17T03:53:36.891Z,21.05
2022-10-17T03:56:14.613Z,31.20
2022-10-17T03:58:41.690Z,26.23
2022-10-17T04:01:10.015Z,41.58
2022-10-17T04:03:36.598Z,33.53
2022-10-17T04:06:04.814Z,26.00
2022-10-17T04:08:31.762Z,22.60
2022-10-17T04:11:02.236Z,20.92
2022-10-17T04:13:29.457Z,29.23
2022-10-17T04:15:57.629Z,35.70
2022-10-17T04:18:24.059Z,36.25
2022-10-17T04:20:53.975Z,32.85
2022-10-17T04:23:20.522Z,31.35
2022-10-17T04:25:46.903Z,31.52
2022-10-17T04:28:13.290Z,32.05
2022-10-17T04:30:42.355Z,24.63
2022-10-17T04:33:11.569Z,24.92
2022-10-17T04:35:38.126Z,30.58
2022-10-17T04:38:05.421Z,35.38
2022-10-17T04:40:38.652Z,35.05
2022-10-17T04:43:05.188Z,38.03
2022-10-17T04:45:31.603Z,38.63
2022-10-17T04:47:57.990Z,31.38
2022-10-17T04:50:27.217Z,24.88
2022-10-17T04:52:53.597Z,22.73
2022-10-17T04:55:20.143Z,34.33
2022-10-17T04:57:46.539Z,20.60
2022-10-17T05:00:13.818Z,35.70
2022-10-17T05:02:43.669Z,22.73
2022-10-17T05:05:12.736Z,23.65
2022-10-17T05:07:42.101Z,25.92
2022-10-17T05:10:08.841Z,29.08
2022-10-17T05:12:35.284Z,33.53
2022-10-17T05:15:01.702Z,24.45
2022-10-17T05:17:28.110Z,26.17
2022-10-17T05:19:55.592Z,20.58
2022-10-17T05:22:22.308Z,33.15
2022-10-17T05:24:48.734Z,37.05
2022-10-17T05:27:15.133Z,25.67
2022-10-17T05:29:44.665Z,34.97
2022-10-17T05:32:11.439Z,30.30
2022-10-17T05:34:37.833Z,23.33
2022-10-17T05:37:04.238Z,21.73
2022-10-17T05:39:30.712Z,30.98
2022-10-17T05:41:57.111Z,23.23
2022-10-17T05:44:23.613Z,26.85
2022-10-17T05:46:51.117Z,25.67
2022-10-17T05:49:31.979Z,31.88
2022-10-17T05:52:00.450Z,39.63
2022-10-17T05:54:27.188Z,27.23
2022-10-17T05:56:54.608Z,36.05
2022-10-17T05:59:21.734Z,36.72
2022-10-17T06:01:48.332Z,27.67
2022-10-17T06:04:14.800Z,20.98
2022-10-17T06:06:41.300Z,39.03
2022-10-17T06:09:08.229Z,23.83
2022-10-17T06:11:35.561Z,29.45
2022-10-17T06:14:02.651Z,39.10
2022-10-17T06:16:32.171Z,29.75
2022-10-17T06:18:58.588Z,33.05
2022-10-17T06:21:26.789Z,33.53
2022-10-17T06:23:53.344Z,34.83
2022-10-17T06:26:20.057Z,31.15
2022-10-17T06:28:46.633Z,44.55
2022-10-17T06:31:15.228Z,23.55
2022-10-17T06:33:41.906Z,16.38
2022-10-17T06:36:11.481Z,26.48
2022-10-17T06:38:37.970Z,31.23
2022-10-17T06:41:13.586Z,22.38
2022-10-17T06:43:43.171Z,23.25
2022-10-17T06:46:13.162Z,32.22
2022-10-17T06:48:39.584Z,21.67
2022-10-17T06:51:06.765Z,28.38
2022-10-17T06:53:34.484Z,28.98
2022-10-17T06:56:05.010Z,31.20
2022-10-17T06:58:34.269Z,31.00
2022-10-17T07:03:41.326Z,26.52
2022-10-17T07:06:08.064Z,31.08
2022-10-17T07:08:34.506Z,27.08
2022-10-17T07:11:09.234Z,36.70
2022-10-17T07:13:39.177Z,28.73
2022-10-17T07:16:06.734Z,34.33
2022-10-17T07:18:34.233Z,33.58
2022-10-17T07:21:03.969Z,33.70
2022-10-17T07:23:30.876Z,35.78
2022-10-17T07:26:01.576Z,31.88
2022-10-17T07:28:29.346Z,24.75
2022-10-17T07:30:55.800Z,53.40
2022-10-17T07:33:22.199Z,47.30
2022-10-17T07:35:52.746Z,40.63
2022-10-17T07:38:19.135Z,33.35
2022-10-17T07:40:45.806Z,35.92
2022-10-17T07:43:13.484Z,30.48
2022-10-17T07:45:41.628Z,36.28
2022-10-17T07:48:08.023Z,49.88
2022-10-17T07:50:34.919Z,32.47
2022-10-17T07:53:02.554Z,37.47
2022-10-17T07:55:28.963Z,38.80
2022-10-17T07:57:55.373Z,34.00
2022-10-17T08:00:21.833Z,31.30
2022-10-17T08:02:49.494Z,27.90
2022-10-17T08:05:15.977Z,43.10
2022-10-17T08:07:42.399Z,35.97
2022-10-17T08:12:40.484Z,26.63
2022-10-17T08:15:08.450Z,34.20
2022-10-17T08:17:35.726Z,49.70
2022-10-17T08:20:02.714Z,44.22
2022-10-17T08:22:29.411Z,52.80
2022-10-17T08:24:59.808Z,57.08
2022-10-17T08:27:27.940Z,49.50
2022-10-17T08:29:57.655Z,43.28
2022-10-17T08:32:26.300Z,40.53
2022-10-17T08:34:53.797Z,46.25
2022-10-17T08:37:20.497Z,36.38
2022-10-17T08:39:46.904Z,56.22
2022-10-17T08:42:31.132Z,54.35
2022-10-17T08:45:07.062Z,39.67
2022-10-17T08:47:39.718Z,59.90
2022-10-17T08:50:11.811Z,55.40
2022-10-17T08:53:06.134Z,45.88
2022-10-17T08:55:44.408Z,54.55
2022-10-17T08:58:27.409Z,56.83
2022-10-17T09:01:17.119Z,52.97
2022-10-17T09:04:13.911Z,50.92
2022-10-17T09:06:49.478Z,61.90
2022-10-17T09:09:30.808Z,50.92
2022-10-17T09:12:43.641Z,59.88
2022-10-17T09:15:31.742Z,52.20
2022-10-17T09:17:59.561Z,55.92
2022-10-17T09:20:30.180Z,61.00
2022-10-17T09:23:16.917Z,59.97
2022-10-17T09:25:53.360Z,64.63
2022-10-17T09:28:31.873Z,58.58
2022-10-17T09:31:05.873Z,51.67
2022-10-17T09:33:53.718Z,49.60
2022-10-17T09:36:33.927Z,52.97
2022-10-17T09:39:03.075Z,56.80
2022-10-17T09:41:50.752Z,54.67
2022-10-17T09:44:22.436Z,60.20
2022-10-17T09:47:15.039Z,46.20
2022-10-17T09:49:43.480Z,44.75
2022-10-17T09:52:19.189Z,51.80
2022-10-17T09:54:53.328Z,44.60
2022-10-17T09:57:21.431Z,54.28
2022-10-17T09:59:55.689Z,51.95
2022-10-17T10:02:24.045Z,42.97
2022-10-17T10:05:07.375Z,48.42
2022-10-17T10:07:38.934Z,53.50
2022-10-17T10:10:25.434Z,44.50
2022-10-17T10:13:08.004Z,42.72
2022-10-17T10:15:39.047Z,49.85
2022-10-17T10:18:25.540Z,39.05
2022-10-17T10:21:12.078Z,51.65
2022-10-17T10:23:40.871Z,51.97
2022-10-17T10:26:27.737Z,40.20
2022-10-17T10:28:59.345Z,46.70
2022-10-17T10:31:31.793Z,48.83
2022-10-17T10:33:59.915Z,46.03
2022-10-17T10:36:27.469Z,49.30
2022-10-17T10:38:57.680Z,44.17
2022-10-17T10:41:27.734Z,48.80
2022-10-17T10:43:54.985Z,42.80
2022-10-17T10:46:28.476Z,43.67
2022-10-17T10:49:00.208Z,50.08
2022-10-17T10:51:34.364Z,51.22
2022-10-17T10:54:10.271Z,39.90
2022-10-17T10:57:02.881Z,39.55
2022-10-17T10:59:38.640Z,39.63
2022-10-17T11:02:07.823Z,37.88
2022-10-17T11:04:46.497Z,38.45
2022-10-17T11:07:22.520Z,42.05
2022-10-17T11:10:10.164Z,42.25
2022-10-17T11:12:41.041Z,44.83
2022-10-17T11:15:25.899Z,47.50
2022-10-17T11:17:57.622Z,35.53
2022-10-17T11:20:48.030Z,34.10
2022-10-17T11:23:21.498Z,42.00
2022-10-17T11:25:50.865Z,45.40
2022-10-17T11:28:19.649Z,38.92
2022-10-17T11:30:50.831Z,39.42
2022-10-17T11:33:43.922Z,42.75
2022-10-17T11:36:10.879Z,45.55
2022-10-17T11:38:43.701Z,48.65
2022-10-17T11:41:13.726Z,40.38
2022-10-17T11:43:48.741Z,43.42
2022-10-17T11:46:23.818Z,43.00
2022-10-17T11:49:01.566Z,39.72
2022-10-17T11:54:31.356Z,33.33
2022-10-17T11:57:15.132Z,44.83
2022-10-17T11:59:54.504Z,39.03
2022-10-17T12:02:44.342Z,31.23
2022-10-17T12:05:46.509Z,39.78
2022-10-17T12:08:21.136Z,45.58
2022-10-17T12:10:59.385Z,35.55
2022-10-17T12:13:32.122Z,40.35
2022-10-17T12:16:19.163Z,38.97
2022-10-17T12:19:10.561Z,30.20
2022-10-17T12:22:06.438Z,42.75
2022-10-17T12:24:41.558Z,40.30
2022-10-17T12:27:37.033Z,36.67
2022-10-17T12:30:07.788Z,30.55
2022-10-17T12:32:53.322Z,40.00
2022-10-17T12:35:22.984Z,25.08
2022-10-17T12:37:54.386Z,44.00
2022-10-17T12:40:36.049Z,36.28
2022-10-17T12:43:23.435Z,39.50
2022-10-17T12:45:58.289Z,43.17
2022-10-17T12:48:33.925Z,41.47
2022-10-17T12:54:02.366Z,42.13
2022-10-17T12:56:37.032Z,41.30
2022-10-17T12:59:11.691Z,44.00
2022-10-17T13:01:40.376Z,39.78
2022-10-17T13:04:09.958Z,37.72
2022-10-17T13:06:45.956Z,43.10
2022-10-17T13:09:33.745Z,39.83
2022-10-17T13:12:03.335Z,38.85
2022-10-17T13:14:29.905Z,31.77
2022-10-17T13:17:04.856Z,37.20
2022-10-17T13:19:41.179Z,36.88
2022-10-17T13:22:15.528Z,31.77
2022-10-17T13:24:42.149Z,29.23
2022-10-17T13:27:29.679Z,32.08
2022-10-17T13:29:58.342Z,41.72
2022-10-17T13:32:26.874Z,26.38
2022-10-17T13:35:14.917Z,35.78
2022-10-17T13:37:43.902Z,25.88
2022-10-17T13:40:50.799Z,37.50
2022-10-17T13:43:20.399Z,31.00
2022-10-17T13:45:50.216Z,30.02
2022-10-17T13:48:28.672Z,30.17
2022-10-17T13:51:01.804Z,26.80
2022-10-17T13:53:39.853Z,38.15
2022-10-17T13:56:36.885Z,35.30
2022-10-17T13:59:20.805Z,25.83
2022-10-17T14:01:49.736Z,26.35
2022-10-17T14:04:20.719Z,22.88
2022-10-17T14:06:51.171Z,23.27
2022-10-17T14:09:26.690Z,30.35
2022-10-17T14:12:19.736Z,33.40
2022-10-17T14:15:09.844Z,22.60
2022-10-17T14:23:17.416Z,19.33
2022-10-17T14:25:40.408Z,33.63
2022-10-17T14:28:14.039Z,30.13
2022-10-17T14:30:56.894Z,20.23
2022-10-17T14:33:27.393Z,24.33
2022-10-17T14:35:58.710Z,28.10
2022-10-17T14:38:25.686Z,26.48
2022-10-17T14:44:04.665Z,19.58
2022-10-17T14:46:31.163Z,31.15
2022-10-17T14:49:14.541Z,27.05
2022-10-17T14:51:50.624Z,21.13
2022-10-17T14:54:30.260Z,24.45
2022-10-17T14:57:02.129Z,24.00
2022-10-17T14:59:52.852Z,20.90
2022-10-17T15:02:18.765Z,22.67
2022-10-17T15:04:45.294Z,19.70
2022-10-17T15:07:16.492Z,21.10
2022-10-17T15:09:47.818Z,22.17
2022-10-17T15:12:28.144Z,16.38
2022-10-17T15:14:54.868Z,16.92
2022-10-17T15:17:25.907Z,20.70
2022-10-17T15:19:52.342Z,24.00
2022-10-17T15:22:18.742Z,18.27
2022-10-17T15:24:46.257Z,21.75
2022-10-17T15:27:19.868Z,21.08
2022-10-17T15:29:46.910Z,16.30
2022-10-17T15:32:13.444Z,27.38
2022-10-17T15:34:39.937Z,20.75
2022-10-17T15:37:07.567Z,24.63
2022-10-17T15:39:34.050Z,19.83
2022-10-17T15:42:00.491Z,22.30
2022-10-17T15:44:27.065Z,19.50
2022-10-17T15:46:56.755Z,23.83
2022-10-17T15:49:23.155Z,19.60
2022-10-17T15:51:55.073Z,24.40
2022-10-17T15:56:53.674Z,16.58
2022-10-17T15:59:23.036Z,14.18
2022-10-17T16:01:49.684Z,20.58
2022-10-17T16:04:17.115Z,18.80
2022-10-17T16:06:44.190Z,16.92
2022-10-17T16:09:11.031Z,26.05
2022-10-17T16:11:41.936Z,22.50
2022-10-17T16:14:12.330Z,21.63
2022-10-17T16:16:39.101Z,25.27
2022-10-17T16:19:05.744Z,22.23
2022-10-17T16:21:35.083Z,22.77
2022-10-17T16:24:02.044Z,20.13
2022-10-17T16:26:28.949Z,22.67
2022-10-17T16:28:58.014Z,20.83
2022-10-17T16:31:30.241Z,19.73
2022-10-17T16:33:58.635Z,18.40
2022-10-17T16:36:25.425Z,21.65
2022-10-17T16:38:55.379Z,18.50
2022-10-17T16:41:24.471Z,20.20
2022-10-17T16:43:52.465Z,21.35
2022-10-17T16:46:19.450Z,24.98
2022-10-17T16:48:46.127Z,22.50
2022-10-17T16:51:18.073Z,20.35
2022-10-17T16:53:50.421Z,21.13
2022-10-17T16:58:45.032Z,21.55
2022-10-17T17:01:14.701Z,21.48
2022-10-17T17:03:45.172Z,21.50
2022-10-17T17:06:14.683Z,22.45
2022-10-17T17:08:42.167Z,23.33
2022-10-17T17:11:10.669Z,20.15
2022-10-17T17:13:38.205Z,28.85
2022-10-17T17:16:12.086Z,19.00
2022-10-17T17:18:39.135Z,17.58
2022-10-17T17:21:07.837Z,22.90
2022-10-17T17:23:36.546Z,23.35
2022-10-17T17:26:11.729Z,21.33
2022-10-17T17:31:59.526Z,20.65
2022-10-17T17:34:26.060Z,24.23
2022-10-17T17:36:52.519Z,22.23
2022-10-17T17:39:19.039Z,20.70
2022-10-17T17:41:45.713Z,24.30
2022-10-17T17:44:16.441Z,21.92
2022-10-17T17:46:43.688Z,28.00
2022-10-17T17:49:11.670Z,23.80
2022-10-17T17:51:38.854Z,24.25
2022-10-17T17:54:05.390Z,19.40
2022-10-17T17:56:32.435Z,22.52
2022-10-17T17:59:02.646Z,29.42
2022-10-17T18:01:36.698Z,29.45
2022-10-17T18:04:16.597Z,26.55
2022-10-17T18:06:43.263Z,18.00
2022-10-17T18:09:09.940Z,20.17
2022-10-17T18:11:37.446Z,26.67
2022-10-17T18:14:06.663Z,19.83
2022-10-17T18:16:34.764Z,29.15
2022-10-17T18:19:06.715Z,23.58
2022-10-17T18:21:33.727Z,29.35
2022-10-17T18:24:00.242Z,27.15
2022-10-17T18:26:27.289Z,24.83
2022-10-17T18:28:53.807Z,29.80
2022-10-17T18:31:25.133Z,25.40
2022-10-17T18:33:52.927Z,19.25
2022-10-17T18:36:20.021Z,30.15
2022-10-17T18:38:46.426Z,30.77
2022-10-17T18:41:15.713Z,27.88
2022-10-17T18:43:43.790Z,25.55
2022-10-17T18:46:14.821Z,34.17
2022-10-17T18:48:47.091Z,35.80
2022-10-17T18:51:15.104Z,24.52
2022-10-17T18:53:45.924Z,37.33
2022-10-17T18:56:12.726Z,26.30
2022-10-17T18:58:40.157Z,34.47
2022-10-17T19:01:18.172Z,19.83
2022-10-17T19:03:46.249Z,27.25
2022-10-17T19:06:17.018Z,26.50
2022-10-17T19:08:47.156Z,32.38
2022-10-17T19:11:21.053Z,24.70
2022-10-17T19:13:48.380Z,26.70
2022-10-17T19:16:20.934Z,24.75
2022-10-17T19:18:56.681Z,25.40
2022-10-17T19:21:23.846Z,28.83
2022-10-17T19:23:58.964Z,30.45
2022-10-17T19:26:26.922Z,29.77
2022-10-17T19:28:53.983Z,20.10
2022-10-17T19:31:26.213Z,28.95
2022-10-17T19:33:53.429Z,23.08
2022-10-17T19:36:23.285Z,18.80
2022-10-17T19:38:53.869Z,25.17
2022-10-17T19:41:20.486Z,17.27
2022-10-17T19:43:52.092Z,35.25
2022-10-17T19:46:24.281Z,28.13
2022-10-17T19:48:51.255Z,38.50
2022-10-17T19:51:30.111Z,34.20
2022-10-17T19:54:02.381Z,23.92
2022-10-17T19:56:31.332Z,22.45
2022-10-17T19:59:00.607Z,34.45
2022-10-17T20:01:30.417Z,28.95
2022-10-17T20:04:03.142Z,26.20
2022-10-17T20:06:41.644Z,32.97
2022-10-17T20:11:51.882Z,37.40
2022-10-17T20:14:20.669Z,39.10
2022-10-17T20:16:54.357Z,29.55
2022-10-17T20:19:24.085Z,29.65
2022-10-17T20:22:08.743Z,27.73
2022-10-17T20:27:04.902Z,44.05
2022-10-17T20:29:48.571Z,38.83
2022-10-17T20:32:17.573Z,40.65
2022-10-17T20:34:44.692Z,38.35
2022-10-17T20:37:11.458Z,47.10
2022-10-17T20:39:40.211Z,32.83
2022-10-17T20:42:07.076Z,20.33
2022-10-17T20:44:33.555Z,38.05
2022-10-17T20:47:02.544Z,46.40
2022-10-17T20:49:30.083Z,45.42
2022-10-17T20:51:57.239Z,27.40
2022-10-17T20:54:23.762Z,29.13
2022-10-17T20:56:59.883Z,45.72
2022-10-17T21:01:59.803Z,28.33
2022-10-17T21:04:46.823Z,31.85
2022-10-17T21:07:14.201Z,31.73
2022-10-17T21:09:40.616Z,40.67
2022-10-17T21:12:07.231Z,29.65
2022-10-17T21:14:33.866Z,31.98
2022-10-17T21:17:04.766Z,33.40
2022-10-17T21:19:31.829Z,41.03
2022-10-17T21:21:58.248Z,34.25
2022-10-17T21:24:27.559Z,25.70
2022-10-17T21:26:55.791Z,26.92
2022-10-17T21:29:23.047Z,26.23
2022-10-17T21:31:49.785Z,36.67
2022-10-17T21:34:20.750Z,30.45
2022-10-17T21:36:47.619Z,29.95
2022-10-17T21:39:14.934Z,30.15
2022-10-17T21:41:42.676Z,33.90
2022-10-17T21:44:15.262Z,19.77
2022-10-17T21:46:42.125Z,29.98
2022-10-17T21:49:09.841Z,34.92
2022-10-17T21:51:36.326Z,29.65
2022-10-17T21:54:05.797Z,35.22
2022-10-17T21:56:34.622Z,29.10
2022-10-17T21:59:01.318Z,32.35
2022-10-17T22:01:30.444Z,32.42
2022-10-17T22:03:59.042Z,27.73
2022-10-17T22:06:44.002Z,40.45
2022-10-17T22:09:18.099Z,37.17
2022-10-17T22:11:56.571Z,29.83
2022-10-17T22:14:27.731Z,42.38
2022-10-17T22:16:54.604Z,44.08
2022-10-17T22:19:31.079Z,41.15
2022-10-17T22:21:57.538Z,25.77
2022-10-17T22:24:24.061Z,27.23
2022-10-17T22:26:50.906Z,37.92
2022-10-17T22:29:17.347Z,35.78
2022-10-17T22:31:46.205Z,39.42
2022-10-17T22:34:14.416Z,37.03
2022-10-17T22:36:41.373Z,33.05
2022-10-17T22:39:07.849Z,21.92
2022-10-17T22:41:34.358Z,24.80
2022-10-17T22:44:01.328Z,23.95
2022-10-17T22:46:30.590Z,35.72
2022-10-17T22:48:57.002Z,29.90
2022-10-17T22:53:55.531Z,21.83
2022-10-17T22:56:22.850Z,36.53
2022-10-17T22:58:49.642Z,32.65
2022-10-17T23:01:18.685Z,20.83
2022-10-17T23:03:51.575Z,33.97
2022-10-17T23:06:18.920Z,33.38
2022-10-17T23:08:45.730Z,27.20
2022-10-17T23:11:12.516Z,29.42
2022-10-17T23:13:41.873Z,33.85
2022-10-17T23:16:08.943Z,21.80
2022-10-17T23:18:36.659Z,21.80
2022-10-17T23:21:03.168Z,36.40
2022-10-17T23:23:29.716Z,18.30
2022-10-17T23:26:05.014Z,30.35
2022-10-17T23:28:33.610Z,30.85
2022-10-17T23:31:08.805Z,32.65
2022-10-17T23:33:35.486Z,33.65
2022-10-17T23:36:05.494Z,23.15
2022-10-17T23:38:31.975Z,30.60
2022-10-17T23:40:58.459Z,19.88
2022-10-17T23:43:26.465Z,22.58
2022-10-17T23:45:53.050Z,35.55
2022-10-17T23:48:19.646Z,34.45
2022-10-17T23:50:46.065Z,32.97
2022-10-17T23:53:12.464Z,32.58
2022-10-17T23:55:42.683Z,38.72
2022-10-17T23:58:09.156Z,26.38
